createdAt,value
2023-03-17T00:01:11.401Z,1010
2023-03-17T00:06:12.364Z,1010
2023-03-17T00:11:12.401Z,1010
2023-03-17T00:16:11.465Z,1010
2023-03-17T00:21:11.456Z,1010
2023-03-17T00:26:11.454Z,1010
2023-03-17T00:31:12.421Z,1010
2023-03-17T00:36:11.909Z,1010
2023-03-17T00:41:11.979Z,1010
2023-03-17T00:46:13.438Z,1010
2023-03-17T00:51:11.481Z,1010
2023-03-17T00:56:12.089Z,1010
2023-03-17T01:01:12.496Z,1009.9
2023-03-17T01:06:11.682Z,1009.9
2023-03-17T01:11:11.924Z,1009.9
2023-03-17T01:16:12.082Z,1009.9
2023-03-17T01:21:12.113Z,1009.7
2023-03-17T01:26:12.100Z,1009.7
2023-03-17T01:31:12.224Z,1009.5
2023-03-17T01:36:12.381Z,1009.5
2023-03-17T01:41:11.509Z,1009.5
2023-03-17T01:46:12.554Z,1009.5
2023-03-17T01:51:12.408Z,1009.6
2023-03-17T01:56:11.490Z,1009.6
2023-03-17T02:01:12.283Z,1009.4
2023-03-17T02:06:12.406Z,1009.4
2023-03-17T02:11:11.577Z,1009.4
2023-03-17T02:16:11.608Z,1009.4
2023-03-17T02:21:12.297Z,1009.4
2023-03-17T02:26:12.399Z,1009.4
2023-03-17T02:31:12.450Z,1009.1
2023-03-17T02:36:11.552Z,1009.1
2023-03-17T02:41:12.377Z,1009.1
2023-03-17T02:46:12.443Z,1009.1
2023-03-17T02:51:11.793Z,1008.9
2023-03-17T02:56:12.314Z,1008.9
2023-03-17T03:01:11.868Z,1008.9
2023-03-17T03:06:12.213Z,1008.9
2023-03-17T03:11:12.181Z,1008.9
2023-03-17T03:16:12.190Z,1008.9
2023-03-17T03:21:12.163Z,1008.9
2023-03-17T03:26:11.693Z,1008.9
2023-03-17T03:31:49.187Z,1008.9
2023-03-17T03:36:12.103Z,1008.9
2023-03-17T03:41:12.368Z,1008.9
2023-03-17T03:46:11.531Z,1008.9
2023-03-17T03:51:12.191Z,1008.9
2023-03-17T03:56:11.669Z,1008.9
2023-03-17T04:01:12.122Z,1008.9
2023-03-17T04:06:12.041Z,1008.9
2023-03-17T04:11:12.080Z,1008.9
2023-03-17T04:16:12.537Z,1008.9
2023-03-17T04:21:11.685Z,1008.6
2023-03-17T04:26:11.719Z,1008.6
2023-03-17T04:31:11.967Z,1008.3
2023-03-17T04:36:11.610Z,1008.3
2023-03-17T04:41:11.702Z,1008.3
2023-03-17T04:46:11.997Z,1008.3
2023-03-17T04:51:12.542Z,1008.3
2023-03-17T04:56:11.581Z,1008.3
2023-03-17T05:01:12.630Z,1008.4
2023-03-17T05:06:12.130Z,1008.4
2023-03-17T05:11:12.034Z,1008.4
2023-03-17T05:16:12.107Z,1008.4
2023-03-17T05:21:12.345Z,1008.3
2023-03-17T05:26:12.452Z,1008.3
2023-03-17T05:31:11.861Z,1008.3
2023-03-17T05:36:12.005Z,1008.3
2023-03-17T05:41:12.368Z,1008.3
2023-03-17T05:46:12.328Z,1008.3
2023-03-17T05:51:12.524Z,1008
2023-03-17T05:56:12.649Z,1008
2023-03-17T06:01:11.764Z,1007.9
2023-03-17T06:06:12.073Z,1007.9
2023-03-17T06:11:12.143Z,1007.9
2023-03-17T06:16:12.164Z,1007.9
2023-03-17T06:21:12.484Z,1007.9
2023-03-17T06:26:12.550Z,1007.9
2023-03-17T06:31:12.621Z,1007.7
2023-03-17T06:36:11.824Z,1007.7
2023-03-17T06:41:11.878Z,1007.7
2023-03-17T06:46:12.139Z,1007.7
2023-03-17T06:51:12.195Z,1007.9
2023-03-17T06:56:23.654Z,1007.9
2023-03-17T07:01:12.066Z,1007.9
2023-03-17T07:06:11.966Z,1007.9
2023-03-17T07:11:12.049Z,1007.9
2023-03-17T07:16:12.226Z,1007.9
2023-03-17T07:21:12.239Z,1007.9
2023-03-17T07:26:12.381Z,1007.9
2023-03-17T07:31:12.407Z,1007.9
2023-03-17T07:36:11.919Z,1007.9
2023-03-17T07:41:11.829Z,1007.9
2023-03-17T07:46:12.304Z,1007.9
2023-03-17T07:51:12.467Z,1007.9
2023-03-17T07:56:12.432Z,1007.9
2023-03-17T08:01:12.704Z,1007.9
2023-03-17T08:06:12.152Z,1007.9
2023-03-17T08:11:12.275Z,1007.9
2023-03-17T08:16:12.334Z,1007.9
2023-03-17T08:21:14.693Z,1007.7
2023-03-17T08:26:12.540Z,1007.7
2023-03-17T08:31:12.812Z,1007.6
2023-03-17T08:36:12.065Z,1007.6
2023-03-17T08:41:12.391Z,1007.6
2023-03-17T08:46:12.488Z,1007.6
2023-03-17T08:51:12.733Z,1007.2
2023-03-17T08:56:12.273Z,1007.2
2023-03-17T09:01:11.922Z,1007.3
2023-03-17T09:06:11.778Z,1007.3
2023-03-17T09:11:12.358Z,1007.3
2023-03-17T09:16:12.406Z,1007.3
2023-03-17T09:21:12.396Z,1007.3
2023-03-17T09:26:12.274Z,1007.3
2023-03-17T09:31:12.626Z,1007.2
2023-03-17T09:36:12.559Z,1007.2
2023-03-17T09:41:11.868Z,1007.2
2023-03-17T09:46:13.427Z,1007.2
2023-03-17T09:51:12.557Z,1006.9
2023-03-17T09:56:11.754Z,1006.9
2023-03-17T10:01:12.468Z,1006.9
2023-03-17T10:06:13.332Z,1006.9
2023-03-17T10:11:12.554Z,1006.9
2023-03-17T10:16:12.577Z,1006.9
2023-03-17T10:21:12.619Z,1006.7
2023-03-17T10:26:12.695Z,1006.7
2023-03-17T10:31:12.744Z,1006.6
2023-03-17T10:36:11.842Z,1006.6
2023-03-17T10:41:12.598Z,1006.6
2023-03-17T10:46:12.435Z,1006.6
2023-03-17T10:51:12.707Z,1006.6
2023-03-17T10:56:12.893Z,1006.6
2023-03-17T11:01:12.328Z,1006.5
2023-03-17T11:06:12.462Z,1006.5
2023-03-17T11:11:12.550Z,1006.5
2023-03-17T11:16:12.180Z,1006.5
2023-03-17T11:21:12.424Z,1006.5
2023-03-17T11:26:12.330Z,1006.5
2023-03-17T11:31:12.373Z,1006.5
2023-03-17T11:36:12.457Z,1006.5
2023-03-17T11:41:12.398Z,1006.5
2023-03-17T11:46:12.408Z,1006.5
2023-03-17T11:51:12.408Z,1006.2
2023-03-17T11:56:12.381Z,1006.2
2023-03-17T12:01:12.382Z,1006.1
2023-03-17T12:06:12.343Z,1006.1
2023-03-17T12:11:12.674Z,1006.1
2023-03-17T12:16:12.712Z,1006.1
2023-03-17T12:21:12.736Z,1006
2023-03-17T12:26:12.201Z,1006
2023-03-17T12:31:12.401Z,1006
2023-03-17T12:36:12.556Z,1006
2023-03-17T12:41:12.576Z,1006
2023-03-17T12:46:11.992Z,1006
2023-03-17T12:51:12.231Z,1006
2023-03-17T12:56:12.207Z,1006
2023-03-17T13:01:12.324Z,1005.6
2023-03-17T13:06:12.340Z,1005.6
2023-03-17T13:11:12.433Z,1005.6
2023-03-17T13:16:12.598Z,1005.6
2023-03-17T13:21:12.745Z,1005.6
2023-03-17T13:26:12.950Z,1005.6
2023-03-17T13:31:12.777Z,1005.5
2023-03-17T13:36:11.962Z,1005.5
2023-03-17T13:41:12.442Z,1005.5
2023-03-17T13:46:12.473Z,1005.5
2023-03-17T13:51:15.129Z,1005.5
2023-03-17T13:56:12.735Z,1005.5
2023-03-17T14:01:12.070Z,1005.5
2023-03-17T14:06:12.111Z,1005.5
2023-03-17T14:11:12.196Z,1005.5
2023-03-17T14:16:12.231Z,1005.5
2023-03-17T14:21:12.358Z,1005.5
2023-03-17T14:26:12.337Z,1005.5
2023-03-17T14:31:12.638Z,1005.5
2023-03-17T14:36:14.360Z,1005.5
2023-03-17T14:41:12.776Z,1005.5
2023-03-17T14:46:12.060Z,1005.5
2023-03-17T14:51:12.120Z,1005.5
2023-03-17T14:56:12.108Z,1005.5
2023-03-17T15:01:12.214Z,1005.3
2023-03-17T15:06:12.327Z,1005.3
2023-03-17T15:11:12.608Z,1005.3
2023-03-17T15:16:12.774Z,1005.3
2023-03-17T15:21:12.081Z,1005.4
2023-03-17T15:26:12.103Z,1005.4
2023-03-17T15:31:12.435Z,1005.4
2023-03-17T15:36:16.589Z,1005.4
2023-03-17T15:41:12.145Z,1005.4
2023-03-17T15:46:12.692Z,1005.4
2023-03-17T15:51:12.444Z,1005.4
2023-03-17T15:56:12.720Z,1005.4
2023-03-17T16:01:12.973Z,1005.2
2023-03-17T16:06:12.121Z,1005.2
2023-03-17T16:11:12.195Z,1005.2
2023-03-17T16:16:12.150Z,1005.2
2023-03-17T16:21:12.383Z,1005.2
2023-03-17T16:26:16.177Z,1005.2
2023-03-17T16:31:12.964Z,1004.7
2023-03-17T16:36:12.333Z,1004.7
2023-03-17T16:41:12.455Z,1004.7
2023-03-17T16:46:12.783Z,1004.7
2023-03-17T16:51:12.037Z,1004.7
2023-03-17T16:56:12.221Z,1004.7
2023-03-17T17:01:12.398Z,1005.5
2023-03-17T17:06:12.620Z,1005.5
2023-03-17T17:11:13.072Z,1005.5
2023-03-17T17:16:12.198Z,1005.5
2023-03-17T17:21:12.398Z,1005.6
2023-03-17T17:26:12.483Z,1005.6
2023-03-17T17:31:12.631Z,1005.8
2023-03-17T17:36:12.797Z,1005.8
2023-03-17T17:41:12.948Z,1005.8
2023-03-17T17:46:12.153Z,1005.8
2023-03-17T17:51:12.464Z,1005.8
2023-03-17T17:56:12.382Z,1005.8
2023-03-17T18:01:12.411Z,1005.1
2023-03-17T18:06:12.388Z,1005.1
2023-03-17T18:11:12.435Z,1005.1
2023-03-17T18:16:12.687Z,1005.1
2023-03-17T18:21:12.808Z,1005.7
2023-03-17T18:26:12.777Z,1005.7
2023-03-17T18:31:12.824Z,1005.9
2023-03-17T18:36:12.813Z,1005.9
2023-03-17T18:41:12.921Z,1005.9
2023-03-17T18:46:13.054Z,1005.9
2023-03-17T18:51:12.208Z,1006
2023-03-17T18:56:12.241Z,1006
2023-03-17T19:01:12.301Z,1006
2023-03-17T19:06:12.494Z,1006
2023-03-17T19:11:12.597Z,1006.1
2023-03-17T19:16:12.466Z,1006.1
2023-03-17T19:21:12.496Z,1006
2023-03-17T19:26:12.400Z,1006
2023-03-17T19:31:12.683Z,1006
2023-03-17T19:36:12.687Z,1006
2023-03-17T19:41:12.855Z,1006
2023-03-17T19:46:13.078Z,1006
2023-03-17T19:51:12.205Z,1005.6
2023-03-17T19:56:12.233Z,1005.6
2023-03-17T20:01:12.852Z,1005.4
2023-03-17T20:06:12.892Z,1005.4
2023-03-17T20:11:13.055Z,1005.4
2023-03-17T20:16:13.131Z,1005.4
2023-03-17T20:21:12.225Z,1005.3
2023-03-17T20:26:12.339Z,1005.3
2023-03-17T20:31:12.596Z,1005.1
2023-03-17T20:36:12.104Z,1005.1
2023-03-17T20:41:12.287Z,1005.1
2023-03-17T20:46:12.422Z,1005.1
2023-03-17T20:51:12.808Z,1005.1
2023-03-17T20:56:12.186Z,1005.1
2023-03-17T21:01:12.318Z,1005.1
2023-03-17T21:06:12.185Z,1005.1
2023-03-17T21:11:12.429Z,1005.1
2023-03-17T21:16:12.285Z,1005.1
2023-03-17T21:21:12.946Z,1005.3
2023-03-17T21:26:12.245Z,1005.3
2023-03-17T21:31:12.286Z,1005.2
2023-03-17T21:36:13.072Z,1005.2
2023-03-17T21:41:12.971Z,1005.2
2023-03-17T21:46:13.086Z,1005.2
2023-03-17T21:51:12.390Z,1005.1
2023-03-17T21:56:12.622Z,1005.1
2023-03-17T22:01:12.777Z,1005.1
2023-03-17T22:06:12.845Z,1005.1
2023-03-17T22:11:13.090Z,1005.1
2023-03-17T22:16:12.346Z,1005.1
2023-03-17T22:21:12.434Z,1005.1
2023-03-17T22:26:12.420Z,1005.1
2023-03-17T22:31:12.417Z,1005.1
2023-03-17T22:36:12.369Z,1005.1
2023-03-17T22:41:12.967Z,1005.1
2023-03-17T22:46:13.290Z,1005.1
2023-03-17T22:51:12.209Z,1005.1
2023-03-17T22:56:12.828Z,1005.1
2023-03-17T23:01:12.929Z,1005.1
2023-03-17T23:06:12.952Z,1005.1
2023-03-17T23:11:13.227Z,1005.1
2023-03-17T23:16:12.328Z,1005.1
2023-03-17T23:21:12.440Z,1005.3
2023-03-17T23:26:12.476Z,1005.3
2023-03-17T23:31:12.573Z,1005.1
2023-03-17T23:36:12.599Z,1005.1
2023-03-17T23:41:12.620Z,1005.1
2023-03-17T23:46:12.648Z,1005.1
2023-03-17T23:51:12.871Z,1005.1
2023-03-17T23:56:13.188Z,1005.1
